world map with NOT marked

NOT - Airport

This information may not be accurate or current and is not valid for navigation or flight planning. No warranty of fitness for any purpose is made or implied.

flag of Californiaflag of United States

Donate via PayPal

Additional information is available on the NEW Great Circle Mapper

Location
City:  Novato, California, United States
Name:Gnoss Field
ICAO / IATA:KDVO / NOT
FAA:DVO

Details
Type:Airport (Airfield)
Use:Public/Civil
Latitude:38°08'37"N (38.143611)
Longitude:122°33'22"W (-122.556099)
Datum:WGS 1984
Elevation:2 ft (1 m)
Runways:1
Longest:3300 × 75 ft (1006 × 23 m)

Time
Timezone:UTC+26:08 (DST+29:08)
Local Time:

Weather
METAR:KDVO  240735Z AUTO 00000KT 04/04 A3035 RMK AO2

Related Locations
Nearby:
Farthest:FTU: 11342 mi / 18253 km
Tolagnaro [Maurillac (Fort Dauphin)], MG

Find:

   beyond  
but within

Other Information
Maps:
Links:
Sources:

  

Sectional Chart

Flight Planning
at skyvector.com

 


Great Circle Mapper   Great Circle Mapper
Great Circle Mapper FAQ   Great Circle Mapper FAQ
  Karl's Home Page
KLSē   KLSē Home
   GC on Facebook
Airlines of the World   Airlines of the World
Donate via PayPal


Copyright © 2004-2014, Karl L. Swartz. All rights reserved.
All trademarks mentioned herein belong to their respective owners.

Please see credits for attribution and copyright information.

Karl Swartz <karl@kls2.com>
  Powered by FreeBSD
Valid HTML 4.01!
Labeled with ICRA
hCard Microformat
Geo Microformat